sensor_id;sensor_type;location;lat;lon;timestamp;P1;durP1;ratioP1;P2;durP2;ratioP2
3343;SDS011;1685;53.104;8.228;2022-08-21T00:01:12;16.83;;;8.00;;
3343;SDS011;1685;53.104;8.228;2022-08-21T00:03:45;16.63;;;9.93;;
3343;SDS011;1685;53.104;8.228;2022-08-21T00:06:12;17.73;;;8.70;;
3343;SDS011;1685;53.104;8.228;2022-08-21T00:08:38;16.43;;;8.00;;
3343;SDS011;1685;53.104;8.228;2022-08-21T00:11:06;16.40;;;9.80;;
3343;SDS011;1685;53.104;8.228;2022-08-21T00:13:33;15.10;;;7.20;;
3343;SDS011;1685;53.104;8.228;2022-08-21T00:16:01;11.00;;;7.70;;
3343;SDS011;1685;53.104;8.228;2022-08-21T00:18:28;15.80;;;7.13;;
3343;SDS011;1685;53.104;8.228;2022-08-21T00:20:56;11.80;;;7.73;;
3343;SDS011;1685;53.104;8.228;2022-08-21T00:23:23;12.90;;;7.77;;
3343;SDS011;1685;53.104;8.228;2022-08-21T00:25:50;8.70;;;6.73;;
3343;SDS011;1685;53.104;8.228;2022-08-21T00:28:17;11.90;;;6.90;;
3343;SDS011;1685;53.104;8.228;2022-08-21T00:30:45;7.93;;;7.10;;
3343;SDS011;1685;53.104;8.228;2022-08-21T00:33:12;10.43;;;6.80;;
3343;SDS011;1685;53.104;8.228;2022-08-21T00:35:40;8.73;;;6.90;;
3343;SDS011;1685;53.104;8.228;2022-08-21T00:38:10;10.00;;;7.03;;
3343;SDS011;1685;53.104;8.228;2022-08-21T00:40:37;17.37;;;7.50;;
3343;SDS011;1685;53.104;8.228;2022-08-21T00:43:07;8.17;;;7.37;;
3343;SDS011;1685;53.104;8.228;2022-08-21T00:45:35;8.53;;;6.67;;
3343;SDS011;1685;53.104;8.228;2022-08-21T00:48:02;8.20;;;6.93;;
3343;SDS011;1685;53.104;8.228;2022-08-21T00:50:32;10.77;;;7.43;;
3343;SDS011;1685;53.104;8.228;2022-08-21T00:53:01;9.60;;;7.40;;
3343;SDS011;1685;53.104;8.228;2022-08-21T00:55:30;11.60;;;7.47;;
3343;SDS011;1685;53.104;8.228;2022-08-21T00:58:00;10.13;;;7.13;;
3343;SDS011;1685;53.104;8.228;2022-08-21T01:00:28;11.70;;;8.47;;
3343;SDS011;1685;53.104;8.228;2022-08-21T01:02:58;11.13;;;8.43;;
3343;SDS011;1685;53.104;8.228;2022-08-21T01:05:26;12.60;;;8.80;;
3343;SDS011;1685;53.104;8.228;2022-08-21T01:07:54;15.40;;;10.93;;
3343;SDS011;1685;53.104;8.228;2022-08-21T01:10:22;22.40;;;11.43;;
3343;SDS011;1685;53.104;8.228;2022-08-21T01:12:52;13.60;;;11.07;;
3343;SDS011;1685;53.104;8.228;2022-08-21T01:15:21;14.27;;;11.10;;
3343;SDS011;1685;53.104;8.228;2022-08-21T01:17:49;12.07;;;9.83;;
3343;SDS011;1685;53.104;8.228;2022-08-21T01:20:18;15.53;;;10.63;;
3343;SDS011;1685;53.104;8.228;2022-08-21T01:22:46;16.30;;;8.97;;
3343;SDS011;1685;53.104;8.228;2022-08-21T01:25:14;10.67;;;6.80;;
3343;SDS011;1685;53.104;8.228;2022-08-21T01:27:44;7.43;;;6.70;;
3343;SDS011;1685;53.104;8.228;2022-08-21T01:30:13;11.17;;;6.60;;
3343;SDS011;1685;53.104;8.228;2022-08-21T01:32:42;8.33;;;5.87;;
3343;SDS011;1685;53.104;8.228;2022-08-21T01:35:10;12.83;;;5.50;;
3343;SDS011;1685;53.104;8.228;2022-08-21T01:37:37;9.67;;;6.37;;
3343;SDS011;1685;53.104;8.228;2022-08-21T01:40:06;11.93;;;5.40;;
3343;SDS011;1685;53.104;8.228;2022-08-21T01:42:35;11.63;;;5.50;;
3343;SDS011;1685;53.104;8.228;2022-08-21T01:45:03;9.07;;;5.43;;
3343;SDS011;1685;53.104;8.228;2022-08-21T01:47:31;8.67;;;5.80;;
3343;SDS011;1685;53.104;8.228;2022-08-21T01:49:57;10.83;;;5.87;;
3343;SDS011;1685;53.104;8.228;2022-08-21T01:52:24;8.70;;;5.80;;
3343;SDS011;1685;53.104;8.228;2022-08-21T01:54:51;9.23;;;6.13;;
3343;SDS011;1685;53.104;8.228;2022-08-21T01:57:20;6.23;;;5.17;;
3343;SDS011;1685;53.104;8.228;2022-08-21T01:59:46;6.27;;;5.43;;
3343;SDS011;1685;53.104;8.228;2022-08-21T02:02:14;8.30;;;5.60;;
3343;SDS011;1685;53.104;8.228;2022-08-21T02:04:41;15.23;;;6.20;;
3343;SDS011;1685;53.104;8.228;2022-08-21T02:07:08;21.53;;;6.00;;
3343;SDS011;1685;53.104;8.228;2022-08-21T02:09:36;8.07;;;5.77;;
3343;SDS011;1685;53.104;8.228;2022-08-21T02:12:03;6.10;;;5.50;;
3343;SDS011;1685;53.104;8.228;2022-08-21T02:14:32;11.13;;;6.33;;
3343;SDS011;1685;53.104;8.228;2022-08-21T02:16:59;7.20;;;5.80;;
3343;SDS011;1685;53.104;8.228;2022-08-21T02:19:26;5.93;;;5.40;;
3343;SDS011;1685;53.104;8.228;2022-08-21T02:21:53;11.17;;;5.50;;
3343;SDS011;1685;53.104;8.228;2022-08-21T02:24:19;7.57;;;5.50;;
3343;SDS011;1685;53.104;8.228;2022-08-21T02:26:46;4.53;;;4.20;;
3343;SDS011;1685;53.104;8.228;2022-08-21T02:29:13;7.40;;;4.87;;
3343;SDS011;1685;53.104;8.228;2022-08-21T02:31:42;5.30;;;4.80;;
3343;SDS011;1685;53.104;8.228;2022-08-21T02:34:09;12.57;;;5.80;;
3343;SDS011;1685;53.104;8.228;2022-08-21T02:36:36;5.83;;;4.87;;
3343;SDS011;1685;53.104;8.228;2022-08-21T02:39:02;9.03;;;5.47;;
3343;SDS011;1685;53.104;8.228;2022-08-21T02:41:29;10.77;;;6.17;;
3343;SDS011;1685;53.104;8.228;2022-08-21T02:43:56;6.97;;;4.90;;
3343;SDS011;1685;53.104;8.228;2022-08-21T02:46:23;5.27;;;4.70;;
3343;SDS011;1685;53.104;8.228;2022-08-21T02:48:51;10.17;;;5.03;;
3343;SDS011;1685;53.104;8.228;2022-08-21T02:51:19;8.53;;;4.43;;
3343;SDS011;1685;53.104;8.228;2022-08-21T02:53:47;10.33;;;5.60;;
3343;SDS011;1685;53.104;8.228;2022-08-21T02:56:16;8.23;;;5.27;;
3343;SDS011;1685;53.104;8.228;2022-08-21T02:58:45;7.70;;;4.70;;
3343;SDS011;1685;53.104;8.228;2022-08-21T03:01:14;6.10;;;4.93;;
3343;SDS011;1685;53.104;8.228;2022-08-21T03:03:42;5.50;;;4.23;;
3343;SDS011;1685;53.104;8.228;2022-08-21T03:06:12;5.40;;;4.43;;
3343;SDS011;1685;53.104;8.228;2022-08-21T03:08:40;5.63;;;4.23;;
3343;SDS011;1685;53.104;8.228;2022-08-21T03:11:10;5.30;;;4.27;;
3343;SDS011;1685;53.104;8.228;2022-08-21T03:13:38;7.10;;;5.10;;
3343;SDS011;1685;53.104;8.228;2022-08-21T03:16:05;7.37;;;4.30;;
3343;SDS011;1685;53.104;8.228;2022-08-21T03:18:33;10.60;;;4.70;;
3343;SDS011;1685;53.104;8.228;2022-08-21T03:21:00;7.70;;;5.23;;
3343;SDS011;1685;53.104;8.228;2022-08-21T03:23:28;7.67;;;5.60;;
3343;SDS011;1685;53.104;8.228;2022-08-21T03:25:56;10.67;;;5.37;;
3343;SDS011;1685;53.104;8.228;2022-08-21T03:28:23;8.30;;;4.93;;
3343;SDS011;1685;53.104;8.228;2022-08-21T03:30:50;9.13;;;6.17;;
3343;SDS011;1685;53.104;8.228;2022-08-21T03:33:19;13.47;;;5.10;;
3343;SDS011;1685;53.104;8.228;2022-08-21T03:35:47;5.40;;;4.90;;
3343;SDS011;1685;53.104;8.228;2022-08-21T03:38:19;5.43;;;4.93;;
3343;SDS011;1685;53.104;8.228;2022-08-21T03:40:48;11.20;;;5.47;;
3343;SDS011;1685;53.104;8.228;2022-08-21T03:43:15;7.50;;;5.47;;
3343;SDS011;1685;53.104;8.228;2022-08-21T03:45:41;6.57;;;5.17;;
3343;SDS011;1685;53.104;8.228;2022-08-21T03:48:08;6.07;;;5.40;;
3343;SDS011;1685;53.104;8.228;2022-08-21T03:50:36;6.60;;;5.47;;
3343;SDS011;1685;53.104;8.228;2022-08-21T03:53:05;6.70;;;5.63;;
3343;SDS011;1685;53.104;8.228;2022-08-21T03:55:32;12.00;;;5.90;;
3343;SDS011;1685;53.104;8.228;2022-08-21T03:58:00;10.27;;;5.57;;
3343;SDS011;1685;53.104;8.228;2022-08-21T04:00:27;9.80;;;5.70;;
3343;SDS011;1685;53.104;8.228;2022-08-21T04:02:55;7.93;;;5.40;;
3343;SDS011;1685;53.104;8.228;2022-08-21T04:05:22;6.50;;;5.50;;
3343;SDS011;1685;53.104;8.228;2022-08-21T04:07:58;6.60;;;5.70;;
3343;SDS011;1685;53.104;8.228;2022-08-21T04:10:27;11.63;;;6.27;;
3343;SDS011;1685;53.104;8.228;2022-08-21T04:12:55;10.20;;;6.63;;
3343;SDS011;1685;53.104;8.228;2022-08-21T04:15:25;11.23;;;6.47;;
3343;SDS011;1685;53.104;8.228;2022-08-21T04:17:52;7.50;;;6.60;;
3343;SDS011;1685;53.104;8.228;2022-08-21T04:20:20;12.10;;;7.80;;
3343;SDS011;1685;53.104;8.228;2022-08-21T04:22:48;8.80;;;7.20;;
3343;SDS011;1685;53.104;8.228;2022-08-21T04:25:16;17.60;;;7.60;;
3343;SDS011;1685;53.104;8.228;2022-08-21T04:27:44;12.53;;;8.00;;
3343;SDS011;1685;53.104;8.228;2022-08-21T04:30:12;13.50;;;7.60;;
3343;SDS011;1685;53.104;8.228;2022-08-21T04:32:43;10.30;;;7.20;;
3343;SDS011;1685;53.104;8.228;2022-08-21T04:35:11;9.93;;;6.73;;
3343;SDS011;1685;53.104;8.228;2022-08-21T04:37:39;10.97;;;7.30;;
3343;SDS011;1685;53.104;8.228;2022-08-21T04:40:06;17.03;;;8.07;;
3343;SDS011;1685;53.104;8.228;2022-08-21T04:42:40;12.23;;;8.33;;
3343;SDS011;1685;53.104;8.228;2022-08-21T04:45:14;18.13;;;9.00;;
3343;SDS011;1685;53.104;8.228;2022-08-21T04:47:44;13.60;;;8.70;;
3343;SDS011;1685;53.104;8.228;2022-08-21T04:50:10;19.03;;;7.50;;
3343;SDS011;1685;53.104;8.228;2022-08-21T04:52:37;12.40;;;8.30;;
3343;SDS011;1685;53.104;8.228;2022-08-21T04:55:04;8.90;;;8.00;;
3343;SDS011;1685;53.104;8.228;2022-08-21T04:57:33;11.13;;;9.57;;
3343;SDS011;1685;53.104;8.228;2022-08-21T05:00:00;12.47;;;8.30;;
3343;SDS011;1685;53.104;8.228;2022-08-21T05:02:28;14.27;;;9.23;;
3343;SDS011;1685;53.104;8.228;2022-08-21T05:04:59;18.53;;;9.00;;
3343;SDS011;1685;53.104;8.228;2022-08-21T05:07:26;12.23;;;8.70;;
3343;SDS011;1685;53.104;8.228;2022-08-21T05:09:55;12.60;;;9.70;;
3343;SDS011;1685;53.104;8.228;2022-08-21T05:12:22;10.83;;;9.50;;
3343;SDS011;1685;53.104;8.228;2022-08-21T05:14:50;13.70;;;9.70;;
3343;SDS011;1685;53.104;8.228;2022-08-21T05:17:17;15.50;;;9.73;;
3343;SDS011;1685;53.104;8.228;2022-08-21T05:19:44;15.27;;;10.60;;
3343;SDS011;1685;53.104;8.228;2022-08-21T05:22:18;17.53;;;12.00;;
3343;SDS011;1685;53.104;8.228;2022-08-21T05:24:45;16.33;;;11.77;;
3343;SDS011;1685;53.104;8.228;2022-08-21T05:27:12;17.83;;;11.70;;
3343;SDS011;1685;53.104;8.228;2022-08-21T05:29:39;13.10;;;10.73;;
3343;SDS011;1685;53.104;8.228;2022-08-21T05:32:07;15.07;;;11.93;;
3343;SDS011;1685;53.104;8.228;2022-08-21T05:34:34;24.90;;;13.57;;
3343;SDS011;1685;53.104;8.228;2022-08-21T05:37:01;16.60;;;13.40;;
3343;SDS011;1685;53.104;8.228;2022-08-21T05:39:30;19.37;;;11.93;;
3343;SDS011;1685;53.104;8.228;2022-08-21T05:41:57;23.23;;;15.37;;
3343;SDS011;1685;53.104;8.228;2022-08-21T05:44:23;19.47;;;12.50;;
3343;SDS011;1685;53.104;8.228;2022-08-21T05:46:50;19.67;;;12.93;;
3343;SDS011;1685;53.104;8.228;2022-08-21T05:49:17;19.00;;;13.23;;
3343;SDS011;1685;53.104;8.228;2022-08-21T05:51:44;22.33;;;14.20;;
3343;SDS011;1685;53.104;8.228;2022-08-21T05:54:10;18.60;;;13.33;;
3343;SDS011;1685;53.104;8.228;2022-08-21T05:56:38;20.90;;;13.80;;
3343;SDS011;1685;53.104;8.228;2022-08-21T05:59:09;18.67;;;14.23;;
3343;SDS011;1685;53.104;8.228;2022-08-21T06:01:36;28.23;;;14.37;;
3343;SDS011;1685;53.104;8.228;2022-08-21T06:04:03;20.67;;;14.87;;
3343;SDS011;1685;53.104;8.228;2022-08-21T06:06:29;21.03;;;14.70;;
3343;SDS011;1685;53.104;8.228;2022-08-21T06:08:56;19.73;;;13.60;;
3343;SDS011;1685;53.104;8.228;2022-08-21T06:11:23;19.40;;;13.30;;
3343;SDS011;1685;53.104;8.228;2022-08-21T06:13:51;15.77;;;12.70;;
3343;SDS011;1685;53.104;8.228;2022-08-21T06:16:18;13.20;;;11.33;;
3343;SDS011;1685;53.104;8.228;2022-08-21T06:18:45;22.53;;;11.93;;
3343;SDS011;1685;53.104;8.228;2022-08-21T06:21:12;20.53;;;11.83;;
3343;SDS011;1685;53.104;8.228;2022-08-21T06:23:39;17.53;;;11.00;;
3343;SDS011;1685;53.104;8.228;2022-08-21T06:26:07;15.70;;;10.80;;
3343;SDS011;1685;53.104;8.228;2022-08-21T06:28:34;16.50;;;11.03;;
3343;SDS011;1685;53.104;8.228;2022-08-21T06:31:10;15.30;;;9.33;;
3343;SDS011;1685;53.104;8.228;2022-08-21T06:33:38;16.73;;;9.50;;
3343;SDS011;1685;53.104;8.228;2022-08-21T06:36:05;24.03;;;9.60;;
3343;SDS011;1685;53.104;8.228;2022-08-21T06:38:32;15.83;;;9.60;;
3343;SDS011;1685;53.104;8.228;2022-08-21T06:40:59;18.73;;;10.13;;
3343;SDS011;1685;53.104;8.228;2022-08-21T06:43:26;11.20;;;9.07;;
3343;SDS011;1685;53.104;8.228;2022-08-21T06:45:53;19.73;;;8.80;;
3343;SDS011;1685;53.104;8.228;2022-08-21T06:48:21;15.87;;;7.73;;
3343;SDS011;1685;53.104;8.228;2022-08-21T06:50:48;14.10;;;7.03;;
3343;SDS011;1685;53.104;8.228;2022-08-21T06:53:16;15.93;;;9.30;;
3343;SDS011;1685;53.104;8.228;2022-08-21T06:55:44;15.27;;;6.90;;
3343;SDS011;1685;53.104;8.228;2022-08-21T06:58:11;11.77;;;7.00;;
3343;SDS011;1685;53.104;8.228;2022-08-21T07:00:40;10.67;;;6.00;;
3343;SDS011;1685;53.104;8.228;2022-08-21T07:03:15;14.23;;;5.57;;
3343;SDS011;1685;53.104;8.228;2022-08-21T07:05:44;11.70;;;6.10;;
3343;SDS011;1685;53.104;8.228;2022-08-21T07:08:10;8.70;;;6.87;;
3343;SDS011;1685;53.104;8.228;2022-08-21T07:10:37;13.37;;;6.30;;
3343;SDS011;1685;53.104;8.228;2022-08-21T07:13:04;8.20;;;5.93;;
3343;SDS011;1685;53.104;8.228;2022-08-21T07:15:32;12.60;;;6.60;;
3343;SDS011;1685;53.104;8.228;2022-08-21T07:17:59;15.63;;;5.53;;
3343;SDS011;1685;53.104;8.228;2022-08-21T07:20:26;15.70;;;5.77;;
3343;SDS011;1685;53.104;8.228;2022-08-21T07:22:54;14.00;;;5.13;;
3343;SDS011;1685;53.104;8.228;2022-08-21T07:25:22;11.57;;;5.07;;
3343;SDS011;1685;53.104;8.228;2022-08-21T07:27:49;17.20;;;5.20;;
3343;SDS011;1685;53.104;8.228;2022-08-21T07:30:16;14.67;;;5.00;;
3343;SDS011;1685;53.104;8.228;2022-08-21T07:32:43;9.13;;;5.00;;
3343;SDS011;1685;53.104;8.228;2022-08-21T07:35:10;6.27;;;4.80;;
3343;SDS011;1685;53.104;8.228;2022-08-21T07:37:37;8.40;;;4.00;;
3343;SDS011;1685;53.104;8.228;2022-08-21T07:40:06;9.37;;;3.63;;
3343;SDS011;1685;53.104;8.228;2022-08-21T07:42:34;7.90;;;3.90;;
3343;SDS011;1685;53.104;8.228;2022-08-21T07:45:01;6.77;;;3.40;;
3343;SDS011;1685;53.104;8.228;2022-08-21T07:47:28;6.00;;;4.87;;
3343;SDS011;1685;53.104;8.228;2022-08-21T07:49:55;10.00;;;4.17;;
3343;SDS011;1685;53.104;8.228;2022-08-21T07:52:22;9.00;;;4.30;;
3343;SDS011;1685;53.104;8.228;2022-08-21T07:54:49;7.10;;;4.33;;
3343;SDS011;1685;53.104;8.228;2022-08-21T07:57:18;10.97;;;4.80;;
3343;SDS011;1685;53.104;8.228;2022-08-21T07:59:44;16.37;;;4.40;;
3343;SDS011;1685;53.104;8.228;2022-08-21T08:02:20;11.90;;;5.93;;
3343;SDS011;1685;53.104;8.228;2022-08-21T08:04:48;7.90;;;4.60;;
3343;SDS011;1685;53.104;8.228;2022-08-21T08:07:15;8.87;;;4.07;;
3343;SDS011;1685;53.104;8.228;2022-08-21T08:09:42;10.10;;;3.77;;
3343;SDS011;1685;53.104;8.228;2022-08-21T08:12:09;6.23;;;3.90;;
3343;SDS011;1685;53.104;8.228;2022-08-21T08:14:38;9.80;;;4.20;;
3343;SDS011;1685;53.104;8.228;2022-08-21T08:17:04;13.43;;;4.80;;
3343;SDS011;1685;53.104;8.228;2022-08-21T08:19:31;5.43;;;3.50;;
3343;SDS011;1685;53.104;8.228;2022-08-21T08:21:58;6.53;;;3.40;;
3343;SDS011;1685;53.104;8.228;2022-08-21T08:24:26;12.47;;;3.00;;
3343;SDS011;1685;53.104;8.228;2022-08-21T08:26:53;13.70;;;3.50;;
3343;SDS011;1685;53.104;8.228;2022-08-21T08:29:22;11.87;;;3.70;;
3343;SDS011;1685;53.104;8.228;2022-08-21T08:31:50;11.13;;;3.30;;
3343;SDS011;1685;53.104;8.228;2022-08-21T08:34:17;10.03;;;3.53;;
3343;SDS011;1685;53.104;8.228;2022-08-21T08:36:46;7.90;;;3.00;;
3343;SDS011;1685;53.104;8.228;2022-08-21T08:39:13;14.73;;;3.23;;
3343;SDS011;1685;53.104;8.228;2022-08-21T08:41:40;7.03;;;2.73;;
3343;SDS011;1685;53.104;8.228;2022-08-21T08:44:07;11.87;;;4.00;;
3343;SDS011;1685;53.104;8.228;2022-08-21T08:46:36;12.43;;;3.03;;
3343;SDS011;1685;53.104;8.228;2022-08-21T08:49:09;12.33;;;3.13;;
3343;SDS011;1685;53.104;8.228;2022-08-21T08:51:40;7.20;;;3.20;;
3343;SDS011;1685;53.104;8.228;2022-08-21T08:54:11;10.40;;;3.60;;
3343;SDS011;1685;53.104;8.228;2022-08-21T08:56:43;8.50;;;3.27;;
3343;SDS011;1685;53.104;8.228;2022-08-21T08:59:13;4.57;;;2.80;;
3343;SDS011;1685;53.104;8.228;2022-08-21T09:01:42;8.67;;;3.73;;
3343;SDS011;1685;53.104;8.228;2022-08-21T09:04:11;10.20;;;2.70;;
3343;SDS011;1685;53.104;8.228;2022-08-21T09:06:49;9.80;;;2.83;;
3343;SDS011;1685;53.104;8.228;2022-08-21T09:09:30;15.60;;;3.37;;
3343;SDS011;1685;53.104;8.228;2022-08-21T09:12:08;9.70;;;3.00;;
3343;SDS011;1685;53.104;8.228;2022-08-21T09:14:47;7.37;;;3.23;;
3343;SDS011;1685;53.104;8.228;2022-08-21T09:17:29;6.90;;;2.87;;
3343;SDS011;1685;53.104;8.228;2022-08-21T09:20:23;10.37;;;3.40;;
3343;SDS011;1685;53.104;8.228;2022-08-21T09:23:02;7.03;;;3.43;;
3343;SDS011;1685;53.104;8.228;2022-08-21T09:25:43;9.53;;;3.00;;
3343;SDS011;1685;53.104;8.228;2022-08-21T09:28:17;5.77;;;2.20;;
3343;SDS011;1685;53.104;8.228;2022-08-21T09:30:44;6.47;;;2.70;;
3343;SDS011;1685;53.104;8.228;2022-08-21T09:33:11;3.83;;;2.00;;
3343;SDS011;1685;53.104;8.228;2022-08-21T09:35:48;6.97;;;2.43;;
3343;SDS011;1685;53.104;8.228;2022-08-21T09:38:24;11.63;;;2.80;;
3343;SDS011;1685;53.104;8.228;2022-08-21T09:40:56;7.97;;;2.80;;
3343;SDS011;1685;53.104;8.228;2022-08-21T09:43:24;5.50;;;2.00;;
3343;SDS011;1685;53.104;8.228;2022-08-21T09:46:00;7.60;;;2.70;;
3343;SDS011;1685;53.104;8.228;2022-08-21T09:48:29;6.57;;;2.70;;
3343;SDS011;1685;53.104;8.228;2022-08-21T09:51:07;4.83;;;2.47;;
3343;SDS011;1685;53.104;8.228;2022-08-21T09:53:37;4.80;;;1.90;;
3343;SDS011;1685;53.104;8.228;2022-08-21T09:56:20;9.20;;;2.13;;
3343;SDS011;1685;53.104;8.228;2022-08-21T09:59:13;6.73;;;2.10;;
3343;SDS011;1685;53.104;8.228;2022-08-21T10:01:42;9.20;;;2.30;;
3343;SDS011;1685;53.104;8.228;2022-08-21T10:04:10;6.30;;;2.40;;
3343;SDS011;1685;53.104;8.228;2022-08-21T10:06:38;9.47;;;2.00;;
3343;SDS011;1685;53.104;8.228;2022-08-21T10:09:06;8.60;;;2.10;;
3343;SDS011;1685;53.104;8.228;2022-08-21T10:11:36;5.07;;;1.90;;
3343;SDS011;1685;53.104;8.228;2022-08-21T10:14:06;4.60;;;1.90;;
3343;SDS011;1685;53.104;8.228;2022-08-21T10:16:41;13.20;;;2.20;;
3343;SDS011;1685;53.104;8.228;2022-08-21T10:19:20;5.33;;;1.80;;
3343;SDS011;1685;53.104;8.228;2022-08-21T10:21:59;5.00;;;1.90;;
3343;SDS011;1685;53.104;8.228;2022-08-21T10:24:32;5.70;;;1.73;;
3343;SDS011;1685;53.104;8.228;2022-08-21T10:27:09;8.40;;;2.30;;
3343;SDS011;1685;53.104;8.228;2022-08-21T10:29:49;5.07;;;2.33;;
3343;SDS011;1685;53.104;8.228;2022-08-21T10:32:25;5.10;;;1.93;;
3343;SDS011;1685;53.104;8.228;2022-08-21T10:35:06;4.37;;;1.90;;
3343;SDS011;1685;53.104;8.228;2022-08-21T10:37:42;4.20;;;1.90;;
3343;SDS011;1685;53.104;8.228;2022-08-21T10:40:21;3.87;;;2.53;;
3343;SDS011;1685;53.104;8.228;2022-08-21T10:43:01;6.07;;;2.47;;
3343;SDS011;1685;53.104;8.228;2022-08-21T10:45:43;7.80;;;1.73;;
3343;SDS011;1685;53.104;8.228;2022-08-21T10:48:22;6.93;;;1.73;;
3343;SDS011;1685;53.104;8.228;2022-08-21T10:50:54;5.87;;;2.60;;
3343;SDS011;1685;53.104;8.228;2022-08-21T10:53:32;5.20;;;1.83;;
3343;SDS011;1685;53.104;8.228;2022-08-21T10:56:21;3.27;;;1.90;;
3343;SDS011;1685;53.104;8.228;2022-08-21T10:58:55;3.63;;;1.70;;
3343;SDS011;1685;53.104;8.228;2022-08-21T11:01:31;5.57;;;2.20;;
3343;SDS011;1685;53.104;8.228;2022-08-21T11:04:09;6.40;;;2.20;;
3343;SDS011;1685;53.104;8.228;2022-08-21T11:06:44;7.93;;;1.90;;
3343;SDS011;1685;53.104;8.228;2022-08-21T11:09:15;7.60;;;2.00;;
3343;SDS011;1685;53.104;8.228;2022-08-21T11:11:45;10.63;;;2.00;;
3343;SDS011;1685;53.104;8.228;2022-08-21T11:14:20;5.03;;;1.53;;
3343;SDS011;1685;53.104;8.228;2022-08-21T11:16:53;6.90;;;2.10;;
3343;SDS011;1685;53.104;8.228;2022-08-21T11:19:28;4.23;;;1.93;;
3343;SDS011;1685;53.104;8.228;2022-08-21T11:22:00;4.93;;;1.87;;
3343;SDS011;1685;53.104;8.228;2022-08-21T11:24:37;3.27;;;1.50;;
3343;SDS011;1685;53.104;8.228;2022-08-21T11:27:13;4.20;;;2.10;;
3343;SDS011;1685;53.104;8.228;2022-08-21T11:29:49;7.00;;;2.00;;
3343;SDS011;1685;53.104;8.228;2022-08-21T11:32:24;7.27;;;2.47;;
3343;SDS011;1685;53.104;8.228;2022-08-21T11:35:03;11.00;;;2.37;;
3343;SDS011;1685;53.104;8.228;2022-08-21T11:37:45;5.97;;;2.10;;
3343;SDS011;1685;53.104;8.228;2022-08-21T11:40:24;2.50;;;1.70;;
3343;SDS011;1685;53.104;8.228;2022-08-21T11:43:01;4.73;;;2.10;;
3343;SDS011;1685;53.104;8.228;2022-08-21T11:45:35;3.90;;;1.80;;
3343;SDS011;1685;53.104;8.228;2022-08-21T11:48:14;5.87;;;1.63;;
3343;SDS011;1685;53.104;8.228;2022-08-21T11:50:51;9.50;;;2.07;;
3343;SDS011;1685;53.104;8.228;2022-08-21T11:53:20;4.37;;;1.60;;
3343;SDS011;1685;53.104;8.228;2022-08-21T11:55:53;3.10;;;1.40;;
3343;SDS011;1685;53.104;8.228;2022-08-21T11:58:25;4.17;;;1.80;;
3343;SDS011;1685;53.104;8.228;2022-08-21T12:00:57;3.60;;;1.70;;
3343;SDS011;1685;53.104;8.228;2022-08-21T12:03:30;4.73;;;1.93;;
3343;SDS011;1685;53.104;8.228;2022-08-21T12:06:00;4.30;;;1.80;;
3343;SDS011;1685;53.104;8.228;2022-08-21T12:08:30;5.00;;;1.63;;
3343;SDS011;1685;53.104;8.228;2022-08-21T12:10:59;7.13;;;2.30;;
3343;SDS011;1685;53.104;8.228;2022-08-21T12:13:30;11.67;;;2.60;;
3343;SDS011;1685;53.104;8.228;2022-08-21T12:16:06;3.43;;;1.67;;
3343;SDS011;1685;53.104;8.228;2022-08-21T12:18:34;8.30;;;1.90;;
3343;SDS011;1685;53.104;8.228;2022-08-21T12:21:04;6.40;;;2.40;;
3343;SDS011;1685;53.104;8.228;2022-08-21T12:23:44;3.13;;;1.60;;
3343;SDS011;1685;53.104;8.228;2022-08-21T12:26:24;4.83;;;1.90;;
3343;SDS011;1685;53.104;8.228;2022-08-21T12:29:03;2.03;;;1.40;;
3343;SDS011;1685;53.104;8.228;2022-08-21T12:31:47;6.80;;;2.00;;
3343;SDS011;1685;53.104;8.228;2022-08-21T12:34:20;7.17;;;1.60;;
3343;SDS011;1685;53.104;8.228;2022-08-21T12:36:49;4.90;;;1.83;;
3343;SDS011;1685;53.104;8.228;2022-08-21T12:39:24;3.37;;;1.63;;
3343;SDS011;1685;53.104;8.228;2022-08-21T12:41:53;6.30;;;1.67;;
3343;SDS011;1685;53.104;8.228;2022-08-21T12:44:27;7.47;;;1.73;;
3343;SDS011;1685;53.104;8.228;2022-08-21T12:47:02;4.10;;;1.67;;
3343;SDS011;1685;53.104;8.228;2022-08-21T12:49:31;2.37;;;1.53;;
3343;SDS011;1685;53.104;8.228;2022-08-21T12:52:03;3.10;;;1.60;;
3343;SDS011;1685;53.104;8.228;2022-08-21T12:54:38;5.20;;;1.80;;
3343;SDS011;1685;53.104;8.228;2022-08-21T12:57:06;5.63;;;2.20;;
3343;SDS011;1685;53.104;8.228;2022-08-21T12:59:36;12.10;;;2.17;;
3343;SDS011;1685;53.104;8.228;2022-08-21T13:02:09;3.50;;;1.90;;
3343;SDS011;1685;53.104;8.228;2022-08-21T13:04:42;6.73;;;1.63;;
3343;SDS011;1685;53.104;8.228;2022-08-21T13:07:10;1.60;;;1.40;;
3343;SDS011;1685;53.104;8.228;2022-08-21T13:09:40;2.40;;;1.83;;
3343;SDS011;1685;53.104;8.228;2022-08-21T13:12:12;6.10;;;2.10;;
3343;SDS011;1685;53.104;8.228;2022-08-21T13:14:42;3.07;;;1.70;;
3343;SDS011;1685;53.104;8.228;2022-08-21T13:17:12;1.93;;;1.50;;
3343;SDS011;1685;53.104;8.228;2022-08-21T13:19:41;5.40;;;1.73;;
3343;SDS011;1685;53.104;8.228;2022-08-21T13:22:12;5.13;;;1.70;;
3343;SDS011;1685;53.104;8.228;2022-08-21T13:24:40;5.73;;;1.90;;
3343;SDS011;1685;53.104;8.228;2022-08-21T13:27:21;11.77;;;2.10;;
3343;SDS011;1685;53.104;8.228;2022-08-21T13:30:00;3.37;;;1.60;;
3343;SDS011;1685;53.104;8.228;2022-08-21T13:32:35;5.60;;;1.73;;
3343;SDS011;1685;53.104;8.228;2022-08-21T13:35:09;3.10;;;1.60;;
3343;SDS011;1685;53.104;8.228;2022-08-21T13:37:38;2.97;;;1.60;;
3343;SDS011;1685;53.104;8.228;2022-08-21T13:40:07;4.50;;;2.00;;
3343;SDS011;1685;53.104;8.228;2022-08-21T13:42:38;4.50;;;1.60;;
3343;SDS011;1685;53.104;8.228;2022-08-21T13:45:10;6.73;;;1.70;;
3343;SDS011;1685;53.104;8.228;2022-08-21T13:47:40;4.33;;;1.53;;
3343;SDS011;1685;53.104;8.228;2022-08-21T13:50:08;2.60;;;1.70;;
3343;SDS011;1685;53.104;8.228;2022-08-21T13:52:46;4.50;;;2.10;;
3343;SDS011;1685;53.104;8.228;2022-08-21T13:55:16;4.47;;;1.47;;
3343;SDS011;1685;53.104;8.228;2022-08-21T13:57:43;2.73;;;1.60;;
3343;SDS011;1685;53.104;8.228;2022-08-21T14:00:12;2.87;;;1.40;;
3343;SDS011;1685;53.104;8.228;2022-08-21T14:02:43;3.20;;;1.80;;
3343;SDS011;1685;53.104;8.228;2022-08-21T14:05:15;2.90;;;1.67;;
3343;SDS011;1685;53.104;8.228;2022-08-21T14:07:45;8.73;;;1.80;;
3343;SDS011;1685;53.104;8.228;2022-08-21T14:10:14;3.03;;;1.50;;
3343;SDS011;1685;53.104;8.228;2022-08-21T14:12:44;3.57;;;1.60;;
3343;SDS011;1685;53.104;8.228;2022-08-21T14:15:14;3.20;;;1.43;;
3343;SDS011;1685;53.104;8.228;2022-08-21T14:17:44;3.50;;;1.30;;
3343;SDS011;1685;53.104;8.228;2022-08-21T14:20:12;2.53;;;1.43;;
3343;SDS011;1685;53.104;8.228;2022-08-21T14:22:53;2.57;;;1.07;;
3343;SDS011;1685;53.104;8.228;2022-08-21T14:25:27;1.63;;;1.50;;
3343;SDS011;1685;53.104;8.228;2022-08-21T14:27:55;5.10;;;1.50;;
3343;SDS011;1685;53.104;8.228;2022-08-21T14:30:27;3.17;;;1.40;;
3343;SDS011;1685;53.104;8.228;2022-08-21T14:32:56;5.70;;;1.97;;
3343;SDS011;1685;53.104;8.228;2022-08-21T14:35:24;2.27;;;1.40;;
3343;SDS011;1685;53.104;8.228;2022-08-21T14:37:51;2.30;;;1.30;;
3343;SDS011;1685;53.104;8.228;2022-08-21T14:40:19;2.80;;;1.30;;
3343;SDS011;1685;53.104;8.228;2022-08-21T14:42:47;2.10;;;1.30;;
3343;SDS011;1685;53.104;8.228;2022-08-21T14:45:15;5.33;;;1.90;;
3343;SDS011;1685;53.104;8.228;2022-08-21T14:47:44;3.33;;;1.73;;
3343;SDS011;1685;53.104;8.228;2022-08-21T14:50:13;2.77;;;1.40;;
3343;SDS011;1685;53.104;8.228;2022-08-21T14:52:40;2.60;;;1.30;;
3343;SDS011;1685;53.104;8.228;2022-08-21T14:55:08;1.47;;;1.20;;
3343;SDS011;1685;53.104;8.228;2022-08-21T14:57:38;1.80;;;1.40;;
3343;SDS011;1685;53.104;8.228;2022-08-21T15:00:08;2.30;;;1.57;;
3343;SDS011;1685;53.104;8.228;2022-08-21T15:02:35;11.73;;;1.33;;
3343;SDS011;1685;53.104;8.228;2022-08-21T15:05:03;2.93;;;1.37;;
3343;SDS011;1685;53.104;8.228;2022-08-21T15:07:32;2.63;;;1.43;;
3343;SDS011;1685;53.104;8.228;2022-08-21T15:09:58;2.00;;;1.40;;
3343;SDS011;1685;53.104;8.228;2022-08-21T15:12:25;2.53;;;1.23;;
3343;SDS011;1685;53.104;8.228;2022-08-21T15:14:52;3.27;;;1.60;;
3343;SDS011;1685;53.104;8.228;2022-08-21T15:17:19;4.47;;;1.70;;
3343;SDS011;1685;53.104;8.228;2022-08-21T15:19:46;1.40;;;1.30;;
3343;SDS011;1685;53.104;8.228;2022-08-21T15:22:14;3.00;;;1.90;;
3343;SDS011;1685;53.104;8.228;2022-08-21T15:24:42;4.63;;;1.57;;